Disclaimer

Please do not use the information listed here in-flight or in-navigation, as they are not provided to us by the airports but are provided by volunteers, so they might be outdated.

Search


Regions


Airport information page

No radio frequency information is available.

Airport informations:
Latitude: 38° 42' 13.90" N
Longitude: 009° 02' 09.30" W
Elevation: 46 feet - 14 meters
Operating hours: Remarks
Operating agency: Military
Timezone: UTC 0(+1DT) - Last Sunday in March to last Sunday in October
Fuel: JP-8, SemiKeroscene MIL Spec T-83133, without icing inhibitor

Runway information:
01/19 - 7044 x 148 feet< - >2147 x 45 meters
08/26 - 8005 x 148 feet< - >2440 x 45 meters

Recent METARs:
LPMT 151300Z 21010KT 180V250 9999 BKN030 17/12 Q1027
LPMT 151300Z 21010KT 180V250 9999 BKN030 17/12 Q1027
LPMT 151400Z 21010KT 190V250 9999 FEW030 BKN040 17/11 Q1026

Airport on the map: